createdAt,value
2023-10-23T00:01:19.252Z,12.60
2023-10-23T00:03:45.738Z,13.00
2023-10-23T00:06:12.168Z,9.82
2023-10-23T00:08:38.464Z,11.93
2023-10-23T00:11:04.727Z,18.20
2023-10-23T00:13:31.095Z,10.80
2023-10-23T00:15:57.392Z,12.73
2023-10-23T00:18:23.739Z,10.15
2023-10-23T00:20:50.077Z,8.23
2023-10-23T00:23:16.342Z,7.15
2023-10-23T00:25:42.616Z,5.43
2023-10-23T00:28:09.002Z,7.80
2023-10-23T00:30:36.983Z,8.52
2023-10-23T00:33:03.809Z,11.20
2023-10-23T00:35:30.164Z,10.90
2023-10-23T00:37:56.515Z,12.10
2023-10-23T00:40:22.810Z,12.60
2023-10-23T00:42:49.256Z,8.30
2023-10-23T00:45:15.586Z,9.15
2023-10-23T00:47:42.016Z,10.00
2023-10-23T00:50:08.304Z,13.27
2023-10-23T00:52:34.573Z,12.40
2023-10-23T00:55:01.376Z,8.85
2023-10-23T00:57:27.771Z,8.55
2023-10-23T00:59:55.048Z,9.05
2023-10-23T01:02:21.373Z,9.25
2023-10-23T01:04:47.725Z,10.82
2023-10-23T01:07:14.033Z,7.38
2023-10-23T01:09:40.461Z,9.02
2023-10-23T01:12:07.069Z,11.75
2023-10-23T01:14:33.425Z,8.88
2023-10-23T01:16:59.717Z,9.60
2023-10-23T01:19:26.117Z,11.00
2023-10-23T01:21:52.392Z,9.07
2023-10-23T01:24:19.770Z,12.45
2023-10-23T01:26:46.075Z,13.18
2023-10-23T01:29:12.357Z,10.18
2023-10-23T01:31:38.721Z,7.97
2023-10-23T01:34:05.100Z,10.40
2023-10-23T01:36:31.377Z,10.07
2023-10-23T01:38:57.708Z,10.18
2023-10-23T01:41:23.991Z,11.45
2023-10-23T01:43:50.241Z,7.20
2023-10-23T01:46:16.518Z,11.30
2023-10-23T01:48:43.364Z,8.55
2023-10-23T01:51:09.654Z,11.05
2023-10-23T01:53:36.555Z,9.63
2023-10-23T01:58:29.009Z,12.60
2023-10-23T02:00:55.296Z,14.57
2023-10-23T02:03:21.837Z,13.75
2023-10-23T02:05:48.886Z,13.00
2023-10-23T02:10:43.875Z,8.63
2023-10-23T02:13:10.188Z,10.20
2023-10-23T02:15:36.463Z,9.52
2023-10-23T02:18:02.837Z,8.48
2023-10-23T02:20:29.156Z,10.77
2023-10-23T02:22:55.478Z,12.90
2023-10-23T02:25:21.980Z,9.00
2023-10-23T02:27:48.266Z,10.00
2023-10-23T02:30:14.608Z,14.13
2023-10-23T02:32:41.003Z,10.30
2023-10-23T02:35:07.491Z,11.07
2023-10-23T02:37:33.798Z,10.85
2023-10-23T02:40:00.824Z,9.50
2023-10-23T02:42:27.231Z,12.35
2023-10-23T02:44:53.662Z,6.03
2023-10-23T02:47:20.014Z,11.68
2023-10-23T02:49:46.300Z,12.18
2023-10-23T02:52:12.573Z,9.25
2023-10-23T02:54:38.949Z,8.55
2023-10-23T02:57:05.300Z,13.15
2023-10-23T02:59:31.901Z,12.50
2023-10-23T03:01:58.203Z,16.38
2023-10-23T03:04:24.612Z,8.35
2023-10-23T03:06:50.912Z,8.05
2023-10-23T03:09:17.170Z,10.43
2023-10-23T03:11:43.553Z,12.50
2023-10-23T03:14:09.868Z,10.13
2023-10-23T03:16:36.435Z,10.90
2023-10-23T03:19:02.845Z,6.60
2023-10-23T03:21:29.204Z,8.32
2023-10-23T03:23:55.641Z,7.95
2023-10-23T03:26:22.025Z,7.65
2023-10-23T03:28:48.301Z,8.43
2023-10-23T03:31:14.676Z,6.30
2023-10-23T03:33:42.409Z,5.18
2023-10-23T03:36:08.753Z,10.52
2023-10-23T03:38:35.117Z,10.45
2023-10-23T03:41:01.425Z,8.63
2023-10-23T03:43:27.887Z,16.08
2023-10-23T03:45:54.596Z,10.77
2023-10-23T03:48:21.002Z,12.27
2023-10-23T03:50:47.377Z,10.52
2023-10-23T03:53:13.708Z,12.85
2023-10-23T03:55:40.101Z,8.98
2023-10-23T03:58:06.420Z,8.85
2023-10-23T04:00:32.943Z,15.98
2023-10-23T04:02:59.359Z,17.38
2023-10-23T04:05:25.684Z,14.25
2023-10-23T04:07:52.105Z,9.07
2023-10-23T04:10:18.507Z,6.18
2023-10-23T04:12:44.825Z,9.75
2023-10-23T04:15:11.128Z,11.35
2023-10-23T04:17:37.426Z,9.40
2023-10-23T04:20:04.203Z,20.13
2023-10-23T04:22:30.936Z,14.00
2023-10-23T04:24:57.393Z,8.80
2023-10-23T04:27:23.852Z,16.13
2023-10-23T04:29:50.147Z,19.15
2023-10-23T04:32:16.457Z,11.93
2023-10-23T04:34:43.115Z,12.30
2023-10-23T04:37:09.419Z,11.02
2023-10-23T04:39:35.773Z,11.57
2023-10-23T04:42:02.931Z,11.43
2023-10-23T04:44:29.327Z,13.02
2023-10-23T04:46:55.721Z,10.38
2023-10-23T04:49:22.091Z,10.60
2023-10-23T04:51:48.380Z,8.57
2023-10-23T04:54:15.252Z,16.00
2023-10-23T04:56:42.605Z,8.68
2023-10-23T04:59:09.022Z,6.55
2023-10-23T05:01:35.286Z,12.88
2023-10-23T05:04:01.650Z,13.75
2023-10-23T05:06:28.109Z,10.02
2023-10-23T05:08:54.514Z,11.63
2023-10-23T05:11:20.822Z,9.48
2023-10-23T05:13:47.305Z,13.48
2023-10-23T05:16:18.174Z,8.73
2023-10-23T05:18:44.733Z,8.00
2023-10-23T05:21:11.714Z,8.20
2023-10-23T05:26:04.244Z,5.57
2023-10-23T05:28:30.571Z,9.00
2023-10-23T05:30:56.875Z,9.68
2023-10-23T05:33:23.203Z,7.13
2023-10-23T05:35:49.523Z,8.70
2023-10-23T05:38:15.792Z,12.98
2023-10-23T05:40:42.145Z,8.75
2023-10-23T05:43:08.431Z,17.45
2023-10-23T05:45:37.004Z,10.07
2023-10-23T05:48:03.783Z,14.95
2023-10-23T05:50:30.244Z,12.50
2023-10-23T05:52:56.500Z,15.48
2023-10-23T05:55:22.788Z,10.45
2023-10-23T05:57:49.156Z,10.38
2023-10-23T06:00:15.669Z,10.70
2023-10-23T06:02:41.982Z,6.57
2023-10-23T06:05:10.193Z,22.80
2023-10-23T06:07:36.650Z,11.80
2023-10-23T06:10:04.251Z,14.60
2023-10-23T06:12:30.848Z,13.18
2023-10-23T06:14:59.271Z,19.17
2023-10-23T06:17:25.746Z,15.68
2023-10-23T06:19:52.079Z,9.45
2023-10-23T06:22:18.352Z,10.88
2023-10-23T06:24:45.795Z,10.38
2023-10-23T06:27:12.095Z,14.10
2023-10-23T06:29:38.672Z,14.55
2023-10-23T06:32:05.524Z,12.63
2023-10-23T06:34:31.865Z,8.48
2023-10-23T06:36:58.150Z,12.52
2023-10-23T06:39:24.590Z,8.93
2023-10-23T06:41:51.720Z,9.88
2023-10-23T06:44:20.359Z,15.45
2023-10-23T06:46:46.686Z,9.90
2023-10-23T06:49:12.965Z,11.52
2023-10-23T06:51:39.245Z,7.68
2023-10-23T06:54:05.633Z,12.27
2023-10-23T06:56:31.928Z,14.27
2023-10-23T06:58:58.190Z,14.63
2023-10-23T07:01:37.999Z,8.25
2023-10-23T07:04:10.674Z,10.45
2023-10-23T07:06:37.014Z,12.50
2023-10-23T07:09:03.711Z,8.32
2023-10-23T07:11:30.134Z,10.35
2023-10-23T07:13:56.438Z,14.65
2023-10-23T07:16:23.149Z,10.50
2023-10-23T07:18:49.536Z,11.38
2023-10-23T07:21:16.486Z,16.23
2023-10-23T07:23:43.009Z,11.05
2023-10-23T07:26:14.019Z,17.77
2023-10-23T07:28:40.555Z,12.25
2023-10-23T07:31:07.359Z,12.32
2023-10-23T07:33:33.733Z,12.55
2023-10-23T07:36:00.880Z,11.20
2023-10-23T07:38:27.145Z,10.93
2023-10-23T07:40:53.399Z,11.55
2023-10-23T07:43:19.729Z,11.32
2023-10-23T07:45:47.573Z,10.23
2023-10-23T07:48:15.125Z,12.82
2023-10-23T07:50:41.805Z,19.17
2023-10-23T07:53:08.696Z,12.40
2023-10-23T07:58:01.404Z,22.67
2023-10-23T08:00:29.714Z,16.10
2023-10-23T08:02:56.268Z,12.30
2023-10-23T08:05:22.634Z,13.13
2023-10-23T08:07:48.910Z,17.65
2023-10-23T08:10:15.320Z,21.27
2023-10-23T08:12:41.927Z,10.63
2023-10-23T08:15:08.585Z,36.30
2023-10-23T08:17:42.115Z,22.98
2023-10-23T08:20:09.793Z,18.48
2023-10-23T08:25:02.316Z,15.75
2023-10-23T08:27:28.747Z,11.20
2023-10-23T08:29:54.988Z,14.88
2023-10-23T08:32:23.043Z,17.05
2023-10-23T08:34:54.674Z,18.15
2023-10-23T08:37:21.328Z,15.30
2023-10-23T08:39:47.694Z,16.52
2023-10-23T08:42:14.157Z,16.45
2023-10-23T08:44:40.499Z,17.77
2023-10-23T08:47:06.893Z,12.23
2023-10-23T08:49:33.237Z,39.15
2023-10-23T08:52:00.642Z,20.20
2023-10-23T08:54:28.208Z,20.58
2023-10-23T08:57:01.278Z,17.60
2023-10-23T08:59:27.598Z,15.30
2023-10-23T09:02:01.470Z,18.65
2023-10-23T09:04:29.495Z,19.20
2023-10-23T09:06:57.231Z,21.60
2023-10-23T09:09:24.842Z,16.40
2023-10-23T09:11:51.673Z,22.45
2023-10-23T09:14:28.168Z,12.82
2023-10-23T09:16:55.812Z,17.75
2023-10-23T09:19:26.487Z,12.18
2023-10-23T09:21:59.314Z,19.40
2023-10-23T09:24:26.215Z,11.27
2023-10-23T09:26:52.713Z,12.73
2023-10-23T09:29:23.055Z,14.73
2023-10-23T09:31:49.868Z,16.15
2023-10-23T09:36:42.690Z,26.10
2023-10-23T09:39:08.982Z,21.67
2023-10-23T09:41:36.957Z,19.65
2023-10-23T09:44:04.878Z,11.65
2023-10-23T09:46:32.042Z,15.52
2023-10-23T09:49:04.773Z,19.70
2023-10-23T09:51:37.586Z,21.25
2023-10-23T09:54:07.575Z,15.90
2023-10-23T09:56:34.832Z,16.52
2023-10-23T09:59:05.597Z,17.33
2023-10-23T10:01:35.899Z,16.05
2023-10-23T10:04:07.313Z,17.65
2023-10-23T10:06:34.644Z,13.73
2023-10-23T10:09:01.938Z,15.30
2023-10-23T10:11:28.335Z,17.38
2023-10-23T10:13:54.865Z,12.63
2023-10-23T10:16:21.313Z,15.65
2023-10-23T10:18:47.871Z,18.90
2023-10-23T10:21:16.160Z,14.80
2023-10-23T10:23:42.739Z,15.57
2023-10-23T10:26:09.540Z,15.27
2023-10-23T10:28:37.464Z,21.52
2023-10-23T10:31:04.149Z,19.45
2023-10-23T10:34:24.958Z,17.15
2023-10-23T10:36:45.057Z,17.87
2023-10-23T10:39:06.564Z,18.48
2023-10-23T10:41:34.755Z,18.08
2023-10-23T10:44:01.059Z,16.80
2023-10-23T10:46:27.601Z,18.35
2023-10-23T10:48:54.597Z,15.48
2023-10-23T10:53:47.787Z,15.50
2023-10-23T10:58:41.133Z,15.85
2023-10-23T11:01:09.161Z,19.80
2023-10-23T11:03:35.803Z,23.13
2023-10-23T11:06:02.187Z,14.65
2023-10-23T11:08:29.252Z,17.80
2023-10-23T11:11:01.697Z,17.40
2023-10-23T11:13:28.038Z,12.68
2023-10-23T11:15:55.746Z,15.63
2023-10-23T11:18:22.157Z,14.75
2023-10-23T11:23:15.909Z,12.32
2023-10-23T11:28:08.442Z,20.20
2023-10-23T11:30:44.448Z,15.05
2023-10-23T11:33:11.083Z,13.70
2023-10-23T11:35:37.378Z,18.20
2023-10-23T11:38:05.933Z,10.90
2023-10-23T11:40:33.756Z,13.82
2023-10-23T11:43:00.163Z,21.70
2023-10-23T11:45:27.939Z,21.15
2023-10-23T11:47:54.362Z,21.33
2023-10-23T11:50:22.856Z,14.88
2023-10-23T11:52:49.719Z,12.02
2023-10-23T11:55:16.989Z,11.60
2023-10-23T11:57:46.145Z,18.77
2023-10-23T12:00:13.595Z,17.63
2023-10-23T12:02:40.618Z,13.32
2023-10-23T12:07:34.466Z,12.93
2023-10-23T12:10:00.801Z,14.27
2023-10-23T12:12:27.138Z,14.25
2023-10-23T12:14:55.294Z,10.82
2023-10-23T12:17:21.888Z,17.33
2023-10-23T12:19:48.605Z,13.57
2023-10-23T12:22:14.939Z,10.93
2023-10-23T12:24:41.279Z,13.93
2023-10-23T12:27:07.545Z,14.68
2023-10-23T12:29:33.866Z,14.65
2023-10-23T12:32:02.548Z,12.15
2023-10-23T12:34:32.684Z,14.15
2023-10-23T12:36:59.570Z,12.88
2023-10-23T12:39:26.587Z,12.82
2023-10-23T12:44:19.141Z,11.32
2023-10-23T12:46:49.491Z,12.85
2023-10-23T12:49:17.987Z,14.77
2023-10-23T12:51:44.462Z,15.52
2023-10-23T12:54:12.002Z,17.08
2023-10-23T12:56:38.317Z,12.77
2023-10-23T12:59:06.029Z,16.23
2023-10-23T13:01:32.428Z,19.48
2023-10-23T13:04:00.862Z,11.75
2023-10-23T13:06:27.328Z,12.82
2023-10-23T13:08:53.584Z,29.70
2023-10-23T13:11:19.903Z,18.63
2023-10-23T13:13:46.157Z,17.73
2023-10-23T13:16:15.143Z,15.00
2023-10-23T13:18:53.590Z,17.40
2023-10-23T13:21:33.622Z,13.15
2023-10-23T13:24:02.056Z,17.95
2023-10-23T13:26:28.310Z,15.23
2023-10-23T13:28:54.589Z,23.52
2023-10-23T13:31:20.877Z,16.52
2023-10-23T13:33:47.534Z,13.82
2023-10-23T13:36:13.884Z,17.85
2023-10-23T13:38:40.155Z,15.40
2023-10-23T13:41:07.097Z,15.23
2023-10-23T13:46:00.133Z,22.15
2023-10-23T13:48:26.521Z,27.10
2023-10-23T13:50:53.095Z,24.10
2023-10-23T13:53:20.581Z,23.05
2023-10-23T13:55:46.990Z,18.67
2023-10-23T13:58:13.496Z,29.15
2023-10-23T14:00:40.004Z,18.63
2023-10-23T14:03:07.059Z,17.55
2023-10-23T14:05:34.787Z,24.60
2023-10-23T14:08:04.539Z,22.05
2023-10-23T14:10:31.024Z,25.67
2023-10-23T14:12:57.845Z,29.83
2023-10-23T14:15:24.457Z,23.17
2023-10-23T14:17:51.047Z,23.80
2023-10-23T14:20:17.851Z,19.33
2023-10-23T14:22:44.103Z,29.10
2023-10-23T14:25:11.186Z,29.42
2023-10-23T14:27:40.128Z,36.47
2023-10-23T14:30:08.702Z,62.95
2023-10-23T14:32:35.995Z,50.30
2023-10-23T14:35:02.467Z,79.25
2023-10-23T14:37:28.778Z,89.85
2023-10-23T14:39:57.241Z,135.02
2023-10-23T14:42:25.540Z,163.88
2023-10-23T14:44:51.860Z,50.17
2023-10-23T14:47:18.265Z,28.30
2023-10-23T14:49:44.714Z,31.25
2023-10-23T14:52:11.147Z,30.30
2023-10-23T14:54:38.188Z,38.00
2023-10-23T14:57:05.071Z,83.85
2023-10-23T15:02:00.407Z,64.85
2023-10-23T15:04:27.269Z,62.20
2023-10-23T15:09:21.129Z,38.05
2023-10-23T15:11:47.501Z,31.13
2023-10-23T15:14:13.799Z,38.22
2023-10-23T15:16:40.156Z,43.45
2023-10-23T15:19:06.607Z,41.35
2023-10-23T15:21:32.999Z,34.35
2023-10-23T15:24:00.218Z,39.92
2023-10-23T15:26:26.652Z,32.20
2023-10-23T15:28:52.925Z,36.22
2023-10-23T15:31:19.283Z,35.58
2023-10-23T15:33:45.631Z,31.30
2023-10-23T15:36:13.514Z,36.63
2023-10-23T15:38:39.973Z,38.03
2023-10-23T15:41:09.930Z,40.13
2023-10-23T15:43:37.392Z,47.30
2023-10-23T15:46:04.719Z,34.85
2023-10-23T15:48:31.093Z,34.35
2023-10-23T15:50:57.960Z,32.75
2023-10-23T15:53:24.540Z,28.98
2023-10-23T15:55:50.980Z,66.72
2023-10-23T15:58:17.563Z,79.28
2023-10-23T16:00:43.890Z,52.55
2023-10-23T16:03:10.222Z,53.35
2023-10-23T16:05:36.622Z,32.45
2023-10-23T16:08:03.857Z,36.83
2023-10-23T16:10:32.553Z,40.85
2023-10-23T16:12:58.975Z,40.00
2023-10-23T16:15:25.266Z,54.20
2023-10-23T16:17:51.567Z,27.73
2023-10-23T16:20:17.860Z,29.95
2023-10-23T16:22:44.145Z,24.77
2023-10-23T16:25:10.489Z,27.95
2023-10-23T16:27:36.946Z,31.20
2023-10-23T16:30:10.831Z,31.55
2023-10-23T16:32:39.245Z,50.08
2023-10-23T16:35:05.721Z,67.97
2023-10-23T16:37:32.052Z,69.55
2023-10-23T16:39:58.428Z,64.72
2023-10-23T16:42:24.750Z,30.77
2023-10-23T16:44:56.347Z,32.63
2023-10-23T16:47:23.139Z,32.17
2023-10-23T16:49:50.170Z,30.00
2023-10-23T16:54:42.718Z,25.15
2023-10-23T16:57:10.414Z,35.58
2023-10-23T16:59:37.158Z,27.80
2023-10-23T17:02:03.918Z,51.20
2023-10-23T17:06:57.516Z,26.58
2023-10-23T17:09:23.822Z,23.90
2023-10-23T17:11:50.107Z,28.92
2023-10-23T17:14:16.355Z,30.90
2023-10-23T17:16:42.719Z,25.92
2023-10-23T17:19:09.105Z,21.90
2023-10-23T17:21:35.465Z,26.25
2023-10-23T17:24:01.720Z,24.30
2023-10-23T17:26:29.336Z,30.08
2023-10-23T17:28:58.465Z,34.50
2023-10-23T17:31:24.923Z,50.88
2023-10-23T17:33:51.297Z,42.90
2023-10-23T17:36:19.906Z,31.95
2023-10-23T17:38:46.497Z,24.45
2023-10-23T17:41:18.788Z,24.85
2023-10-23T17:43:45.103Z,21.75
2023-10-23T17:46:11.550Z,20.45
2023-10-23T17:48:38.410Z,22.50
2023-10-23T17:51:05.717Z,20.33
2023-10-23T17:53:31.976Z,16.45
2023-10-23T17:55:58.304Z,21.15
2023-10-23T17:58:25.677Z,20.00
2023-10-23T18:00:52.049Z,23.20
2023-10-23T18:03:19.390Z,22.15
2023-10-23T18:05:47.245Z,20.83
2023-10-23T18:08:13.629Z,23.60
2023-10-23T18:10:39.954Z,25.88
2023-10-23T18:13:06.248Z,20.30
2023-10-23T18:15:32.547Z,51.20
2023-10-23T18:17:58.849Z,103.70
2023-10-23T18:20:28.983Z,38.13
2023-10-23T18:22:58.021Z,42.30
2023-10-23T18:25:24.440Z,35.67
2023-10-23T18:27:50.769Z,32.38
2023-10-23T18:30:17.327Z,39.42
2023-10-23T18:32:44.485Z,33.97
2023-10-23T18:35:11.996Z,34.00
2023-10-23T18:37:38.576Z,29.73
2023-10-23T18:40:05.958Z,37.58
2023-10-23T18:42:37.204Z,55.63
2023-10-23T18:45:06.046Z,36.20
2023-10-23T18:47:32.895Z,31.05
2023-10-23T18:50:01.260Z,27.48
2023-10-23T18:52:27.591Z,22.65
2023-10-23T18:54:53.903Z,23.92
2023-10-23T18:57:20.157Z,22.80
2023-10-23T18:59:47.122Z,39.20
2023-10-23T19:04:39.734Z,34.75
2023-10-23T19:07:06.076Z,47.13
2023-10-23T19:09:32.346Z,31.20
2023-10-23T19:11:58.633Z,26.98
2023-10-23T19:14:24.896Z,24.20
2023-10-23T19:16:51.336Z,28.65
2023-10-23T19:19:17.986Z,25.48
2023-10-23T19:21:44.276Z,21.92
2023-10-23T19:24:14.185Z,25.60
2023-10-23T19:26:43.615Z,25.98
2023-10-23T19:29:09.936Z,28.48
2023-10-23T19:31:36.399Z,22.05
2023-10-23T19:34:02.823Z,18.90
2023-10-23T19:36:29.928Z,27.80
2023-10-23T19:38:56.340Z,20.50
2023-10-23T19:41:25.740Z,22.77
2023-10-23T19:43:52.208Z,29.52
2023-10-23T19:46:19.426Z,27.23
2023-10-23T19:48:46.374Z,29.70
2023-10-23T19:51:16.414Z,22.20
2023-10-23T19:53:48.385Z,23.05
2023-10-23T19:56:29.382Z,24.65
2023-10-23T19:58:59.043Z,19.23
2023-10-23T20:01:25.481Z,19.35
2023-10-23T20:03:51.855Z,26.13
2023-10-23T20:06:18.141Z,24.13
2023-10-23T20:08:44.726Z,30.48
2023-10-23T20:11:11.022Z,23.60
2023-10-23T20:13:37.545Z,23.85
2023-10-23T20:16:04.864Z,22.77
2023-10-23T20:18:31.736Z,21.00
2023-10-23T20:20:58.006Z,24.15
2023-10-23T20:23:24.296Z,24.90
2023-10-23T20:25:50.574Z,23.40
2023-10-23T20:28:16.971Z,23.02
2023-10-23T20:30:43.796Z,22.20
2023-10-23T20:33:10.479Z,33.92
2023-10-23T20:35:37.062Z,32.72
2023-10-23T20:38:05.137Z,25.10
2023-10-23T20:40:31.473Z,24.08
2023-10-23T20:42:57.793Z,26.45
2023-10-23T20:45:24.034Z,21.85
2023-10-23T20:47:50.413Z,26.10
2023-10-23T20:50:18.035Z,31.27
2023-10-23T20:52:44.331Z,30.83
2023-10-23T20:55:10.683Z,25.20
2023-10-23T20:57:37.031Z,23.27
2023-10-23T21:00:07.160Z,20.73
2023-10-23T21:02:33.848Z,20.52
2023-10-23T21:05:00.234Z,15.52
2023-10-23T21:07:26.587Z,17.15
2023-10-23T21:09:53.882Z,14.38
2023-10-23T21:12:20.239Z,17.58
2023-10-23T21:14:47.687Z,17.27
2023-10-23T21:17:14.492Z,15.18
2023-10-23T21:19:41.259Z,14.27
2023-10-23T21:24:33.974Z,12.07
2023-10-23T21:27:00.243Z,8.55
2023-10-23T21:29:26.570Z,10.93
2023-10-23T21:31:53.278Z,11.52
2023-10-23T21:34:20.049Z,10.30
2023-10-23T21:36:46.570Z,12.73
2023-10-23T21:39:12.966Z,14.73
2023-10-23T21:41:39.747Z,9.65
2023-10-23T21:44:06.183Z,11.85
2023-10-23T21:46:32.802Z,13.77
2023-10-23T21:49:02.933Z,7.95
2023-10-23T21:51:29.766Z,18.45
2023-10-23T21:53:56.595Z,9.90
2023-10-23T21:57:14.007Z,13.48
2023-10-23T21:59:12.464Z,11.85
2023-10-23T22:01:40.739Z,14.90
2023-10-23T22:04:08.099Z,26.75
2023-10-23T22:06:34.581Z,21.90
2023-10-23T22:09:01.003Z,17.17
2023-10-23T22:11:27.393Z,18.25
2023-10-23T22:13:53.760Z,17.05
2023-10-23T22:16:20.091Z,11.32
2023-10-23T22:18:46.411Z,16.48
2023-10-23T22:21:12.676Z,14.38
2023-10-23T22:23:39.006Z,17.52
2023-10-23T22:26:05.295Z,13.30
2023-10-23T22:28:31.583Z,16.45
2023-10-23T22:30:57.992Z,15.57
2023-10-23T22:33:24.363Z,13.32
2023-10-23T22:35:50.813Z,15.07
2023-10-23T22:38:17.156Z,29.55
2023-10-23T22:40:44.845Z,48.17
2023-10-23T22:43:14.416Z,24.05
2023-10-23T22:46:01.796Z,21.80
2023-10-23T22:48:26.968Z,15.25
2023-10-23T22:50:53.474Z,12.23
2023-10-23T22:53:19.894Z,13.68
2023-10-23T22:55:46.359Z,24.58
2023-10-23T22:58:14.096Z,21.38
2023-10-23T23:00:40.489Z,13.00
2023-10-23T23:03:07.034Z,14.18
2023-10-23T23:05:33.440Z,16.23
2023-10-23T23:08:01.829Z,17.25
2023-10-23T23:10:28.660Z,14.50
2023-10-23T23:15:21.962Z,14.15
2023-10-23T23:17:48.376Z,12.65
2023-10-23T23:20:14.982Z,14.00
2023-10-23T23:22:41.292Z,17.20
2023-10-23T23:25:09.740Z,14.25
2023-10-23T23:27:36.260Z,14.30
2023-10-23T23:30:02.594Z,13.07
2023-10-23T23:32:28.980Z,15.57
2023-10-23T23:34:55.313Z,16.60
2023-10-23T23:37:21.615Z,15.75
2023-10-23T23:39:47.922Z,15.05
2023-10-23T23:42:14.752Z,13.80
2023-10-23T23:44:41.270Z,16.42
2023-10-23T23:47:07.774Z,15.52
2023-10-23T23:49:34.720Z,18.38
2023-10-23T23:54:27.466Z,21.00
2023-10-23T23:56:53.708Z,22.40
2023-10-23T23:59:20.116Z,20.42
